createdAt,value
2022-09-09T00:02:16.884Z,2.57
2022-09-09T00:04:55.152Z,2.30
2022-09-09T00:07:29.081Z,2.83
2022-09-09T00:10:08.591Z,2.27
2022-09-09T00:12:57.739Z,2.13
2022-09-09T00:15:37.714Z,2.30
2022-09-09T00:18:16.590Z,2.17
2022-09-09T00:20:52.111Z,2.20
2022-09-09T00:23:28.282Z,2.60
2022-09-09T00:26:05.671Z,2.30
2022-09-09T00:28:41.615Z,2.40
2022-09-09T00:31:16.155Z,2.20
2022-09-09T00:33:49.284Z,2.10
2022-09-09T00:36:21.071Z,2.20
2022-09-09T00:38:54.068Z,2.20
2022-09-09T00:41:33.658Z,2.20
2022-09-09T00:44:12.549Z,2.20
2022-09-09T00:46:56.665Z,1.97
2022-09-09T00:49:35.943Z,2.23
2022-09-09T00:52:15.439Z,2.10
2022-09-09T00:54:54.774Z,2.33
2022-09-09T00:57:30.710Z,2.13
2022-09-09T01:00:06.101Z,2.60
2022-09-09T01:02:42.223Z,2.30
2022-09-09T01:05:18.669Z,2.27
2022-09-09T01:07:54.046Z,1.90
2022-09-09T01:10:38.824Z,2.60
2022-09-09T01:13:17.904Z,2.10
2022-09-09T01:15:49.163Z,1.90
2022-09-09T01:18:21.326Z,2.03
2022-09-09T01:20:57.273Z,2.27
2022-09-09T01:23:40.905Z,2.30
2022-09-09T01:26:23.952Z,2.07
2022-09-09T01:28:55.079Z,2.10
2022-09-09T01:31:29.148Z,2.23
2022-09-09T01:33:58.025Z,2.20
2022-09-09T01:36:34.943Z,2.20
2022-09-09T01:39:04.178Z,1.70
2022-09-09T01:41:34.717Z,1.77
2022-09-09T01:44:04.410Z,1.90
2022-09-09T01:46:33.349Z,1.87
2022-09-09T01:49:04.576Z,2.20
2022-09-09T01:51:33.846Z,2.13
2022-09-09T01:54:03.098Z,2.17
2022-09-09T01:56:45.675Z,2.00
2022-09-09T01:59:33.901Z,1.90
2022-09-09T02:02:14.271Z,1.80
2022-09-09T02:04:45.583Z,2.10
2022-09-09T02:07:30.936Z,2.10
2022-09-09T02:10:04.457Z,1.80
2022-09-09T02:12:34.879Z,2.10
2022-09-09T02:15:09.521Z,2.13
2022-09-09T02:17:40.520Z,2.03
2022-09-09T02:20:12.808Z,1.97
2022-09-09T02:22:44.344Z,1.70
2022-09-09T02:25:17.843Z,2.10
2022-09-09T02:27:49.982Z,1.80
2022-09-09T02:30:19.631Z,1.90
2022-09-09T02:32:51.257Z,1.70
2022-09-09T02:35:23.554Z,2.03
2022-09-09T02:37:54.845Z,1.80
2022-09-09T02:40:24.164Z,1.97
2022-09-09T02:42:56.733Z,1.60
2022-09-09T02:45:29.917Z,2.10
2022-09-09T02:48:07.214Z,1.80
2022-09-09T02:50:37.458Z,1.70
2022-09-09T02:53:12.982Z,1.90
2022-09-09T02:55:47.882Z,1.73
2022-09-09T02:58:21.608Z,2.00
2022-09-09T03:00:55.115Z,2.10
2022-09-09T03:03:24.442Z,2.10
2022-09-09T03:05:53.292Z,1.90
2022-09-09T03:08:22.200Z,2.00
2022-09-09T03:10:51.029Z,2.70
2022-09-09T03:13:21.526Z,2.30
2022-09-09T03:15:51.005Z,2.60
2022-09-09T03:18:20.027Z,2.07
2022-09-09T03:20:52.265Z,2.97
2022-09-09T03:23:21.886Z,2.03
2022-09-09T03:25:51.174Z,1.97
2022-09-09T03:28:21.995Z,2.00
2022-09-09T03:30:50.951Z,2.00
2022-09-09T03:33:20.028Z,2.23
2022-09-09T03:35:50.045Z,2.20
2022-09-09T03:38:19.538Z,2.13
2022-09-09T03:40:54.788Z,2.00
2022-09-09T03:43:25.688Z,2.20
2022-09-09T03:45:58.056Z,2.47
2022-09-09T03:48:29.516Z,2.40
2022-09-09T03:51:04.907Z,3.30
2022-09-09T03:53:34.639Z,3.70
2022-09-09T03:56:04.577Z,3.30
2022-09-09T03:58:35.566Z,2.90
2022-09-09T04:01:06.682Z,2.53
2022-09-09T04:03:35.616Z,2.70
2022-09-09T04:06:06.244Z,2.83
2022-09-09T04:08:35.509Z,2.43
2022-09-09T04:11:07.646Z,2.33
2022-09-09T04:13:41.560Z,2.40
2022-09-09T04:16:12.767Z,2.37
2022-09-09T04:18:42.019Z,2.30
2022-09-09T04:21:13.439Z,2.10
2022-09-09T04:23:42.664Z,2.40
2022-09-09T04:26:11.638Z,2.33
2022-09-09T04:28:41.857Z,2.40
2022-09-09T04:31:12.758Z,2.27
2022-09-09T04:33:41.627Z,2.27
2022-09-09T04:36:10.680Z,2.30
2022-09-09T04:38:39.547Z,2.37
2022-09-09T04:41:12.239Z,2.27
2022-09-09T04:43:42.828Z,2.10
2022-09-09T04:46:12.170Z,2.03
2022-09-09T04:48:41.414Z,2.10
2022-09-09T04:51:13.648Z,2.10
2022-09-09T04:53:42.738Z,2.30
2022-09-09T04:56:15.329Z,1.87
2022-09-09T04:58:46.861Z,2.20
2022-09-09T05:01:18.665Z,2.27
2022-09-09T05:03:48.059Z,2.23
2022-09-09T05:06:18.637Z,2.03
2022-09-09T05:08:47.899Z,2.63
2022-09-09T05:11:18.662Z,2.67
2022-09-09T05:13:49.579Z,2.23
2022-09-09T05:16:18.958Z,1.70
2022-09-09T05:18:48.495Z,1.87
2022-09-09T05:21:18.876Z,2.00
2022-09-09T05:23:48.347Z,1.97
2022-09-09T05:26:19.050Z,2.00
2022-09-09T05:28:49.810Z,1.90
2022-09-09T05:31:20.404Z,1.83
2022-09-09T05:33:50.644Z,1.90
2022-09-09T05:36:21.033Z,2.07
2022-09-09T05:38:50.486Z,2.20
2022-09-09T05:41:21.302Z,1.97
2022-09-09T05:43:51.927Z,2.17
2022-09-09T05:46:22.911Z,2.30
2022-09-09T05:48:52.775Z,1.93
2022-09-09T05:51:23.313Z,1.87
2022-09-09T05:53:53.110Z,1.90
2022-09-09T05:56:26.525Z,2.20
2022-09-09T05:58:57.728Z,2.23
2022-09-09T06:01:28.822Z,2.17
2022-09-09T06:03:58.175Z,2.27
2022-09-09T06:06:28.563Z,2.20
2022-09-09T06:08:59.336Z,2.13
2022-09-09T06:11:32.426Z,2.33
2022-09-09T06:14:03.112Z,2.40
2022-09-09T06:16:34.191Z,2.37
2022-09-09T06:19:03.825Z,2.20
2022-09-09T06:21:35.175Z,2.67
2022-09-09T06:24:04.917Z,2.50
2022-09-09T06:26:35.496Z,2.50
2022-09-09T06:29:06.929Z,2.50
2022-09-09T06:31:38.193Z,2.47
2022-09-09T06:34:08.647Z,2.80
2022-09-09T06:36:39.459Z,2.47
2022-09-09T06:39:14.477Z,2.10
2022-09-09T06:41:44.925Z,2.70
2022-09-09T06:44:16.495Z,2.40
2022-09-09T06:46:49.253Z,2.37
2022-09-09T06:49:18.204Z,2.30
2022-09-09T06:51:47.749Z,2.67
2022-09-09T06:54:17.007Z,2.93
2022-09-09T06:56:47.465Z,2.70
2022-09-09T06:59:18.206Z,2.50
2022-09-09T07:01:50.408Z,2.53
2022-09-09T07:04:22.470Z,2.57
2022-09-09T07:06:51.576Z,2.73
2022-09-09T07:09:20.445Z,2.63
2022-09-09T07:11:52.028Z,3.33
2022-09-09T07:14:23.280Z,5.60
2022-09-09T07:16:52.648Z,7.90
2022-09-09T07:19:23.380Z,7.97
2022-09-09T07:21:52.258Z,15.17
2022-09-09T07:24:21.263Z,13.70
2022-09-09T07:26:50.028Z,14.80
2022-09-09T07:29:20.973Z,11.27
2022-09-09T07:31:51.568Z,14.27
2022-09-09T07:34:20.400Z,16.03
2022-09-09T07:36:50.117Z,7.83
2022-09-09T07:39:19.281Z,8.73
2022-09-09T07:41:50.339Z,6.83
2022-09-09T07:44:22.727Z,11.23
2022-09-09T07:46:53.250Z,9.80
2022-09-09T07:49:28.490Z,10.50
2022-09-09T07:51:58.965Z,10.07
2022-09-09T07:54:35.010Z,9.90
2022-09-09T07:57:05.835Z,9.13
2022-09-09T07:59:34.990Z,8.77
2022-09-09T08:02:05.426Z,9.80
2022-09-09T08:04:34.532Z,15.17
2022-09-09T08:07:04.311Z,11.37
2022-09-09T08:09:34.903Z,15.90
2022-09-09T08:12:04.412Z,9.63
2022-09-09T08:14:33.353Z,8.73
2022-09-09T08:17:02.223Z,8.90
2022-09-09T08:19:35.403Z,6.90
2022-09-09T08:22:04.542Z,6.93
2022-09-09T08:24:33.453Z,9.23
2022-09-09T08:27:02.789Z,5.50
2022-09-09T08:29:31.881Z,6.93
2022-09-09T08:32:01.464Z,6.50
2022-09-09T08:34:32.621Z,7.57
2022-09-09T08:37:01.427Z,7.73
2022-09-09T08:39:30.783Z,7.40
2022-09-09T08:42:36.621Z,5.10
2022-09-09T08:45:23.568Z,8.60
2022-09-09T08:48:04.627Z,9.87
2022-09-09T08:50:39.823Z,8.20
2022-09-09T08:53:14.478Z,7.73
2022-09-09T08:55:48.376Z,7.70
2022-09-09T08:58:19.438Z,5.50
2022-09-09T09:01:03.469Z,7.67
2022-09-09T09:03:42.762Z,7.30
2022-09-09T09:06:29.762Z,8.63
2022-09-09T09:09:03.582Z,5.37
2022-09-09T09:11:39.282Z,5.53
2022-09-09T09:14:15.138Z,6.13
2022-09-09T09:16:51.530Z,5.33
2022-09-09T09:19:24.016Z,5.77
2022-09-09T09:21:58.356Z,5.80
2022-09-09T09:24:34.402Z,5.57
2022-09-09T09:27:12.058Z,5.50
2022-09-09T09:30:10.492Z,5.33
2022-09-09T09:32:37.738Z,6.03
2022-09-09T09:35:14.215Z,5.20
2022-09-09T09:40:35.712Z,6.17
2022-09-09T09:43:09.133Z,6.43
2022-09-09T09:45:55.342Z,7.87
2022-09-09T09:48:35.153Z,6.20
2022-09-09T09:51:09.772Z,5.83
2022-09-09T09:53:41.361Z,6.30
2022-09-09T09:56:12.581Z,6.67
2022-09-09T09:58:52.940Z,6.10
2022-09-09T10:01:26.528Z,7.00
2022-09-09T10:03:56.640Z,7.00
2022-09-09T10:06:39.368Z,7.47
2022-09-09T10:09:25.775Z,9.10
2022-09-09T10:12:03.061Z,9.20
2022-09-09T10:14:38.668Z,8.77
2022-09-09T10:17:19.554Z,8.80
2022-09-09T10:20:01.009Z,8.23
2022-09-09T10:22:31.292Z,9.33
2022-09-09T10:25:29.579Z,8.23
2022-09-09T10:28:27.013Z,6.50
2022-09-09T10:31:07.873Z,7.37
2022-09-09T10:33:42.324Z,7.50
2022-09-09T10:36:26.473Z,7.50
2022-09-09T10:39:08.111Z,7.83
2022-09-09T10:41:58.831Z,7.27
2022-09-09T10:44:37.900Z,8.07
2022-09-09T10:47:32.064Z,7.60
2022-09-09T10:50:15.097Z,7.37
2022-09-09T10:52:53.868Z,7.63
2022-09-09T10:55:29.838Z,8.40
2022-09-09T10:58:03.254Z,10.73
2022-09-09T11:00:41.838Z,11.90
2022-09-09T11:03:21.533Z,8.60
2022-09-09T11:05:54.636Z,7.77
2022-09-09T11:08:25.665Z,5.63
2022-09-09T11:11:01.844Z,7.80
2022-09-09T11:13:37.953Z,7.27
2022-09-09T11:16:18.245Z,7.50
2022-09-09T11:18:48.950Z,6.67
2022-09-09T11:21:24.629Z,7.73
2022-09-09T11:23:58.623Z,8.40
2022-09-09T11:26:34.511Z,7.43
2022-09-09T11:29:35.617Z,8.27
2022-09-09T11:32:21.593Z,8.13
2022-09-09T11:34:59.332Z,7.63
2022-09-09T11:38:04.743Z,7.97
2022-09-09T11:40:36.078Z,7.80
2022-09-09T11:43:07.989Z,7.50
2022-09-09T11:45:39.404Z,8.07
2022-09-09T11:48:26.214Z,8.37
2022-09-09T11:51:06.564Z,8.47
2022-09-09T11:53:35.763Z,8.43
2022-09-09T11:56:15.973Z,8.60
2022-09-09T11:58:56.517Z,7.83
2022-09-09T12:01:38.589Z,8.73
2022-09-09T12:04:38.037Z,8.80
2022-09-09T12:07:26.016Z,8.27
2022-09-09T12:09:59.233Z,9.60
2022-09-09T12:12:31.694Z,9.23
2022-09-09T12:15:22.106Z,6.20
2022-09-09T12:17:54.632Z,8.00
2022-09-09T12:20:26.054Z,8.87
2022-09-09T12:23:10.484Z,8.53
2022-09-09T12:25:51.743Z,10.07
2022-09-09T12:28:23.023Z,9.37
2022-09-09T12:31:00.122Z,9.00
2022-09-09T12:33:37.415Z,8.00
2022-09-09T12:36:10.875Z,8.23
2022-09-09T12:38:42.600Z,8.30
2022-09-09T12:41:23.344Z,8.73
2022-09-09T12:43:52.635Z,8.37
2022-09-09T12:46:58.262Z,7.37
2022-09-09T12:49:35.566Z,8.07
2022-09-09T12:52:07.353Z,7.63
2022-09-09T12:54:38.996Z,8.93
2022-09-09T12:57:08.354Z,7.53
2022-09-09T12:59:43.281Z,8.33
2022-09-09T13:02:22.333Z,8.07
2022-09-09T13:04:53.140Z,7.87
2022-09-09T13:07:23.023Z,7.80
2022-09-09T13:09:52.285Z,8.27
2022-09-09T13:12:55.857Z,7.90
2022-09-09T13:15:28.895Z,5.90
2022-09-09T13:18:02.088Z,7.80
2022-09-09T13:20:32.365Z,7.73
2022-09-09T13:23:01.315Z,7.77
2022-09-09T13:25:31.581Z,8.33
2022-09-09T13:28:03.691Z,7.27
2022-09-09T13:30:35.072Z,8.13
2022-09-09T13:33:21.789Z,8.20
2022-09-09T13:35:55.283Z,8.90
2022-09-09T13:38:27.472Z,7.90
2022-09-09T13:41:00.577Z,8.53
2022-09-09T13:43:30.424Z,7.70
2022-09-09T13:46:02.634Z,8.77
2022-09-09T13:48:33.124Z,8.97
2022-09-09T13:51:06.684Z,9.00
2022-09-09T13:53:36.664Z,8.77
2022-09-09T13:56:05.765Z,8.07
2022-09-09T13:58:34.776Z,8.00
2022-09-09T14:01:03.675Z,8.43
2022-09-09T14:03:32.869Z,7.70
2022-09-09T14:06:03.278Z,8.10
2022-09-09T14:08:38.525Z,8.03
2022-09-09T14:11:07.506Z,9.20
2022-09-09T14:13:38.866Z,8.93
2022-09-09T14:16:08.038Z,8.60
2022-09-09T14:18:37.215Z,9.00
2022-09-09T14:21:33.937Z,10.47
2022-09-09T14:24:02.885Z,7.93
2022-09-09T14:26:31.885Z,7.67
2022-09-09T14:29:02.095Z,9.70
2022-09-09T14:31:31.337Z,8.73
2022-09-09T14:34:00.285Z,8.10
2022-09-09T14:36:31.633Z,8.90
2022-09-09T14:39:00.545Z,9.30
2022-09-09T14:41:30.865Z,8.50
2022-09-09T14:44:01.075Z,9.50
2022-09-09T14:46:29.977Z,9.10
2022-09-09T14:48:58.774Z,7.70
2022-09-09T14:51:29.810Z,8.87
2022-09-09T14:54:03.307Z,8.77
2022-09-09T14:56:35.793Z,8.80
2022-09-09T14:59:05.213Z,8.87
2022-09-09T15:01:35.555Z,9.00
2022-09-09T15:04:06.823Z,9.53
2022-09-09T15:06:39.815Z,9.70
2022-09-09T15:09:08.724Z,9.60
2022-09-09T15:11:40.390Z,9.97
2022-09-09T15:14:10.454Z,9.97
2022-09-09T15:16:39.351Z,9.50
2022-09-09T15:19:08.232Z,9.57
2022-09-09T15:21:40.178Z,9.13
2022-09-09T15:24:09.614Z,9.00
2022-09-09T15:26:40.991Z,9.10
2022-09-09T15:29:10.143Z,10.23
2022-09-09T15:31:39.389Z,9.17
2022-09-09T15:34:09.571Z,8.70
2022-09-09T15:36:41.033Z,9.50
2022-09-09T15:39:14.043Z,9.40
2022-09-09T15:41:43.139Z,9.53
2022-09-09T15:44:13.480Z,9.77
2022-09-09T15:46:43.559Z,9.60
2022-09-09T15:49:14.467Z,9.23
2022-09-09T15:51:46.392Z,9.43
2022-09-09T15:54:19.375Z,10.40
2022-09-09T15:56:50.058Z,9.40
2022-09-09T15:59:19.631Z,9.73
2022-09-09T16:01:48.536Z,9.47
2022-09-09T16:04:24.510Z,9.73
2022-09-09T16:06:56.132Z,11.20
2022-09-09T16:09:25.277Z,8.50
2022-09-09T16:11:54.546Z,8.33
2022-09-09T16:14:23.586Z,10.27
2022-09-09T16:16:52.470Z,7.97
2022-09-09T16:19:21.741Z,9.17
2022-09-09T16:21:52.659Z,9.30
2022-09-09T16:24:23.539Z,9.07
2022-09-09T16:26:54.050Z,9.40
2022-09-09T16:29:24.104Z,8.60
2022-09-09T16:31:53.474Z,8.30
2022-09-09T16:34:23.467Z,8.40
2022-09-09T16:36:52.436Z,8.20
2022-09-09T16:39:24.161Z,8.27
2022-09-09T16:41:53.510Z,7.77
2022-09-09T16:44:22.376Z,7.63
2022-09-09T16:46:58.093Z,7.80
2022-09-09T16:49:29.762Z,6.90
2022-09-09T16:52:01.357Z,7.17
2022-09-09T16:54:40.508Z,6.43
2022-09-09T16:57:09.441Z,6.60
2022-09-09T16:59:38.546Z,7.60
2022-09-09T17:02:08.532Z,6.87
2022-09-09T17:04:37.740Z,7.83
2022-09-09T17:07:06.629Z,6.93
2022-09-09T17:09:36.965Z,7.53
2022-09-09T17:12:06.418Z,6.97
2022-09-09T17:14:35.368Z,8.73
2022-09-09T17:17:25.137Z,7.20
2022-09-09T17:19:54.933Z,7.83
2022-09-09T17:22:24.367Z,8.30
2022-09-09T17:24:54.917Z,6.90
2022-09-09T17:27:23.818Z,7.13
2022-09-09T17:29:52.621Z,7.83
2022-09-09T17:32:21.440Z,7.53
2022-09-09T17:34:50.246Z,6.87
2022-09-09T17:37:19.098Z,6.67
2022-09-09T17:39:48.134Z,6.90
2022-09-09T17:42:19.529Z,6.97
2022-09-09T17:44:48.729Z,6.07
2022-09-09T17:47:17.624Z,5.90
2022-09-09T17:49:47.650Z,6.07
2022-09-09T17:52:17.358Z,5.87
2022-09-09T17:54:48.548Z,6.40
2022-09-09T17:57:20.434Z,5.93
2022-09-09T17:59:49.277Z,6.10
2022-09-09T18:02:18.278Z,5.50
2022-09-09T18:04:47.653Z,5.97
2022-09-09T18:07:16.563Z,5.60
2022-09-09T18:09:45.462Z,5.33
2022-09-09T18:12:14.335Z,5.10
2022-09-09T18:14:44.718Z,4.93
2022-09-09T18:17:13.626Z,5.10
2022-09-09T18:19:42.461Z,4.90
2022-09-09T18:22:11.301Z,5.40
2022-09-09T18:24:40.679Z,5.20
2022-09-09T18:27:09.697Z,5.10
2022-09-09T18:29:38.594Z,5.00
2022-09-09T18:32:09.148Z,4.33
2022-09-09T18:34:38.208Z,5.17
2022-09-09T18:37:08.510Z,5.03
2022-09-09T18:39:37.606Z,4.53
2022-09-09T18:42:07.417Z,4.57
2022-09-09T18:44:37.449Z,4.77
2022-09-09T18:47:08.588Z,5.17
2022-09-09T18:49:37.794Z,5.60
2022-09-09T18:52:09.767Z,5.40
2022-09-09T18:54:44.699Z,5.53
2022-09-09T18:57:13.844Z,5.33
2022-09-09T18:59:42.927Z,5.17
2022-09-09T19:02:13.929Z,4.90
2022-09-09T19:04:43.087Z,5.60
2022-09-09T19:07:12.328Z,5.00
2022-09-09T19:09:41.633Z,5.60
2022-09-09T19:12:10.588Z,4.93
2022-09-09T19:14:39.727Z,5.07
2022-09-09T19:17:09.286Z,5.30
2022-09-09T19:19:42.968Z,4.83
2022-09-09T19:22:13.078Z,4.93
2022-09-09T19:24:42.127Z,6.00
2022-09-09T19:27:11.267Z,5.40
2022-09-09T19:29:43.021Z,5.27
2022-09-09T19:35:03.465Z,5.00
2022-09-09T19:37:32.666Z,5.43
2022-09-09T19:40:01.614Z,4.93
2022-09-09T19:42:32.507Z,5.53
2022-09-09T19:45:01.769Z,5.70
2022-09-09T19:47:30.765Z,5.37
2022-09-09T19:49:59.803Z,5.20
2022-09-09T19:52:30.249Z,5.90
2022-09-09T19:54:59.750Z,5.80
2022-09-09T19:57:31.107Z,5.37
2022-09-09T20:00:01.146Z,6.30
2022-09-09T20:02:30.092Z,5.87
2022-09-09T20:04:59.784Z,5.17
2022-09-09T20:07:30.125Z,5.93
2022-09-09T20:09:58.985Z,5.17
2022-09-09T20:12:27.904Z,5.27
2022-09-09T20:14:56.805Z,5.70
2022-09-09T20:17:25.735Z,6.03
2022-09-09T20:19:54.917Z,5.90
2022-09-09T20:22:23.818Z,5.53
2022-09-09T20:24:54.177Z,5.33
2022-09-09T20:27:23.066Z,5.03
2022-09-09T20:29:52.015Z,5.80
2022-09-09T20:32:20.936Z,5.30
2022-09-09T20:34:50.684Z,5.50
2022-09-09T20:37:21.139Z,4.77
2022-09-09T20:39:50.148Z,5.43
2022-09-09T20:42:20.825Z,5.53
2022-09-09T20:44:49.963Z,5.07
2022-09-09T20:47:19.457Z,5.70
2022-09-09T20:49:48.464Z,5.37
2022-09-09T20:52:20.577Z,4.27
2022-09-09T20:54:49.877Z,5.40
2022-09-09T20:57:23.384Z,5.37
2022-09-09T20:59:52.980Z,5.30
2022-09-09T21:02:21.926Z,5.57
2022-09-09T21:04:50.837Z,5.17
2022-09-09T21:07:19.736Z,5.33
2022-09-09T21:09:48.645Z,5.80
2022-09-09T21:12:18.457Z,5.73
2022-09-09T21:14:48.832Z,5.30
2022-09-09T21:17:17.819Z,5.83
2022-09-09T21:19:46.656Z,5.77
2022-09-09T21:22:15.617Z,5.63
2022-09-09T21:24:44.436Z,5.53
2022-09-09T21:27:13.626Z,5.93
2022-09-09T21:29:43.098Z,5.53
2022-09-09T21:32:13.484Z,5.30
2022-09-09T21:34:42.876Z,5.60
2022-09-09T21:37:12.424Z,5.63
2022-09-09T21:39:41.164Z,6.00
2022-09-09T21:42:10.006Z,5.67
2022-09-09T21:44:39.091Z,5.80
2022-09-09T21:47:08.028Z,6.20
2022-09-09T21:49:41.783Z,5.80
2022-09-09T21:52:10.574Z,5.40
2022-09-09T21:54:39.813Z,5.90
2022-09-09T21:57:08.627Z,6.10
2022-09-09T21:59:37.448Z,5.97
2022-09-09T22:02:06.495Z,5.83
2022-09-09T22:04:37.090Z,5.20
2022-09-09T22:07:07.452Z,6.00
2022-09-09T22:09:36.677Z,5.73
2022-09-09T22:12:05.708Z,6.00
2022-09-09T22:14:34.769Z,6.20
2022-09-09T22:17:03.900Z,5.80
2022-09-09T22:19:33.550Z,5.83
2022-09-09T22:22:02.467Z,5.77
2022-09-09T22:24:33.163Z,5.27
2022-09-09T22:27:02.134Z,6.13
2022-09-09T22:29:32.098Z,5.50
2022-09-09T22:32:02.298Z,5.10
2022-09-09T22:34:32.270Z,5.70
2022-09-09T22:37:02.879Z,5.93
2022-09-09T22:39:33.283Z,5.90
2022-09-09T22:42:05.429Z,5.70
2022-09-09T22:44:34.741Z,6.00
2022-09-09T22:47:04.026Z,6.13
2022-09-09T22:49:32.856Z,5.40
2022-09-09T22:52:01.563Z,5.77
2022-09-09T22:54:30.637Z,5.20
2022-09-09T22:57:04.377Z,5.60
2022-09-09T22:59:33.260Z,5.87
2022-09-09T23:02:02.565Z,5.57
2022-09-09T23:04:31.528Z,5.90
2022-09-09T23:07:01.083Z,5.73
2022-09-09T23:09:29.979Z,5.07
2022-09-09T23:12:01.030Z,5.80
2022-09-09T23:14:33.197Z,5.33
2022-09-09T23:17:02.527Z,5.70
2022-09-09T23:19:31.506Z,5.93
2022-09-09T23:22:00.893Z,5.40
2022-09-09T23:24:29.805Z,5.87
2022-09-09T23:27:00.037Z,5.83
2022-09-09T23:29:29.096Z,6.03
2022-09-09T23:31:57.971Z,5.77
2022-09-09T23:34:27.177Z,5.57
2022-09-09T23:36:56.080Z,5.57
2022-09-09T23:39:24.919Z,6.00
2022-09-09T23:41:53.785Z,5.70
2022-09-09T23:44:24.039Z,5.53
2022-09-09T23:46:52.827Z,5.67
2022-09-09T23:49:21.773Z,6.07
2022-09-09T23:51:50.544Z,5.07
2022-09-09T23:54:19.360Z,5.43
2022-09-09T23:56:48.129Z,6.17
2022-09-09T23:59:17.043Z,6.07
